Currently 48°F in Wildomar, California, USA
48°F
53°F / 47°F
calm
0.00"
Wednesday, April 26, 2017 6:48 AM PDT

Wildomar, California Weather Summary
Last 36 Hours

Temperature Winds Hourly Humidity Dewpoint
Time Report Norm Report Norm Max Gusts Precip. Rpt. Norm Rpt. Norm Pressure
1Wed 06:48 AM  48.4°F  51°F  calm  1 mph  none  0.00"  89%  84%  45°F  46°F  29.94"
3Wed 06:11 AM  47.4°F  51°F  calm  1 mph  none  ----  88%  83%  44°F  45°F  29.93"
Wed 06:00 AM  47.5°F  51°F  calm  1 mph  none  0.00"  88%  83%  44°F  45°F  29.93"
Wed 05:00 AM  48.1°F  51°F  calm  1 mph  none  0.00"  87%  82%  44°F  46°F  29.93"
Wed 04:00 AM  48.9°F  52°F  calm  1 mph  none  0.00"  85%  81%  44°F  46°F  29.93"
Wed 03:00 AM  49.5°F  52°F  calm  1 mph  none  0.00"  83%  80%  44°F  46°F  29.92"
Wed 02:00 AM  50.4°F  53°F  calm  calm  none  0.00"  80%  80%  44°F  47°F  29.92"
Wed 01:00 AM  50.9°F  54°F  calm  1 mph  none  0.00"  78%  78%  44°F  47°F  29.94"
2Wed 12:00 AM  52.8°F  55°F  calm  1 mph  none  0.00"  75%  76%  45°F  47°F  29.94"
Tue 11:00 PM  56.0°F  57°F  calm  1 mph  none  0.00"  73%  72%  47°F  48°F  29.94"
Tue 10:00 PM  58.1°F  59°F  calm  1 mph  none  0.00"  67%  68%  47°F  48°F  29.94"
Tue 09:00 PM  60.3°F  61°F  calm  1 mph  none  0.00"  62%  64%  47°F  48°F  29.92"
Tue 08:00 PM  64.0°F  64°F  calm  2 mph  none  0.00"  51%  57%  45°F  48°F  29.89"
Tue 07:00 PM  69.0°F  68°F  calm  3 mph  none  0.00"  44%  50%  45°F  48°F  29.86"
Tue 06:00 PM  71.0°F  72°F  calm  5 mph  none  0.00"  43%  44%  47°F  48°F  29.85"
Tue 05:00 PM  72.1°F  76°F  calm  5 mph  none  0.00"  45%  39%  49°F  48°F  29.85"
Tue 04:00 PM  74.7°F  78°F  calm  5 mph  none  0.00"  44%  34%  51°F  47°F  29.85"
Tue 03:00 PM  71.3°F  79°F  calm  4 mph  none  0.00"  52%  33%  52°F  46°F  29.87"
Tue 02:00 PM  71.0°F  78°F  calm  4 mph  none  0.00"  53%  34%  52°F  46°F  29.88"
Tue 01:00 PM  71.5°F  77°F  calm  3 mph  none  0.00"  51%  35%  52°F  46°F  29.90"
Tue 12:00 PM  70.5°F  74°F  calm  3 mph  none  0.00"  53%  39%  52°F  46°F  29.91"
Tue 11:00 AM  69.3°F  71°F  calm  3 mph  none  0.00"  51%  44%  50°F  47°F  29.91"
Tue 10:00 AM  66.2°F  67°F  calm  2 mph  none  0.00"  60%  51%  51°F  48°F  29.92"
Tue 09:00 AM  63.7°F  62°F  calm  2 mph  none  0.00"  65%  63%  51°F  49°F  29.91"
Tue 08:00 AM  58.8°F  57°F  calm  1 mph  none  0.00"  76%  76%  51°F  49°F  29.90"
Tue 07:00 AM  54.5°F  51°F  calm  1 mph  none  0.00"  90%  84%  51°F  46°F  29.89"
Tue 06:00 AM  53.4°F  51°F  calm  1 mph  none  0.00"  91%  83%  51°F  46°F  29.88"
Tue 05:00 AM  54.5°F  51°F  calm  1 mph  none  0.00"  89%  83%  51°F  46°F  29.87"
Tue 04:00 AM  55.9°F  52°F  calm  1 mph  none  0.00"  85%  82%  51°F  46°F  29.86"
Tue 03:00 AM  55.9°F  52°F  calm  1 mph  none  0.00"  84%  81%  51°F  46°F  29.86"
Tue 02:00 AM  56.4°F  53°F  calm  calm  none  0.00"  81%  80%  50°F  47°F  29.89"
Tue 01:00 AM  56.6°F  54°F  calm  1 mph  none  0.00"  81%  79%  51°F  47°F  29.88"
Tue 12:00 AM  56.9°F  55°F  calm  1 mph  none  0.00"  81%  77%  51°F  47°F  29.87"
Mon 11:00 PM  57.6°F  56°F  calm  1 mph  none  0.00"  81%  74%  52°F  48°F  29.89"
Mon 10:00 PM  58.3°F  58°F  calm  1 mph  none  0.00"  80%  70%  52°F  48°F  29.88"
Mon 09:00 PM  59.5°F  61°F  calm  1 mph  none  0.00"  79%  65%  53°F  48°F  29.87"
Mon 08:00 PM  61.9°F  64°F  calm  2 mph  none  0.00"  73%  59%  53°F  48°F  29.86"
Mon 07:00 PM  65.3°F  68°F  calm  3 mph  none  0.00"  66%  50%  53°F  48°F  29.84"

  1. Current weather data. No green row appears if the current weather data is also the high or low for the current day.
  2. High temperature for the current day.
  3. Low temperature for the current day.

The Wildomar, California weather pages are a service of WeatherCurrents. Wildomar is located southwestern Riverside County, California, north of Murrieta and south of Lake Elsinore.
Copyright ©Wed Apr 26 06:48:25 PDT 2017  WeatherCurrents. All rights reserved. - Submit questions and comments - Privacy Policy

This page automatically refreshes every 10 minutes.